x

Onslow Bay Outer, Nc (41036) Wave Buoy

12:50am - Tue 2nd Sep 2014 All times are EDT. -4 hours from GMT.

  • Sig Wave height 2.6ft
  • Swell Direction
  • Peak Period 8s
  • Average Period 4s
  • Wind
    13mph, 16mph gusts
  • Sea Temp 82°f
  • Air Temp 82°f
  • Sea Pressure 1019.2mb
  • Onslow Bay Outer, Nc
  • Onslow Bay Outer, Nc

More Historic Weather Station data

Upgrade to MSW Pro to gain access to the past 30 days of data for over 8000 Wavebouys and Weather Stations around the globe.

Join Pro

Comparision Forecast

View Surf forecast
   
Tue 09/02 12:50am 2.5ft 8s 4s 13 16 mph 1019.2mb 82f 82f
12:20am  -   -   -  13 16 mph 1019.1mb 82f 82f
Mon 09/01 11:50pm 2.5ft 9s 5s 13 16 mph 1019.3mb 82f 82f
11:20pm  -   -   -  13 16 mph 1019.2mb 82f 82f
10:50pm 2.5ft 8s 5s 13 16 mph 1019.1mb 82f 82f
10:20pm  -   -   -  13 16 mph 1019.2mb 82f 82f
9:50pm 2.5ft 8s 5s 11 16 mph 1019.2mb 82f 83f
9:20pm  -   -   -  11 16 mph 1019mb 82f 82f
8:50pm 2.5ft 8s 4s 13 16 mph 1018.8mb 82f 82f
8:20pm  -   -   -  13 16 mph 1018.6mb 82f 83f
7:50pm 2.5ft 9s 5s 13 16 mph 1018.5mb 82f 82f
6:50pm 2.5ft 9s 5s 13 18 mph 1018.1mb 83f 82f
6:20pm  -   -   -  16 18 mph 1018.2mb 83f 83f
5:50pm 2.5ft 8s 5s 13 16 mph 1018.1mb 83f 83f
5:20pm  -   -   -  13 16 mph 1018.4mb 83f 83f
4:50pm 2.5ft 8s 5s 13
mph
1018.5mb 83f 83f
4:20pm  -   -   -  11 13 mph 1018.6mb 83f 82f
3:50pm 2.5ft 9s 6s 11
mph
1018.6mb 83f 82f
3:20pm  -   -   -  9 11 mph 1019mb 84f 82f
2:50pm 2.5ft 8s 5s 9 11 mph 1019.3mb 84f 82f
2:20pm  -   -   -  7 9 mph 1019.5mb 84f 82f
1:50pm 2.5ft 9s 5s 4 7 mph 1019.7mb 84f 82f
1:20pm  -   -   -  4 7 mph 1019.6mb 84f 82f
12:50pm 2.5ft 9s 5s 4 7 mph 1019.9mb 83f 82f
12:20pm  -   -   -  7
mph
1020.2mb 83f 82f
11:50am 2.5ft 10s 5s 7
mph
1020.2mb 83f 82f
11:20am  -   -   -  4 7 mph 1020.3mb 83f 82f
10:50am 3ft 9s 5s 7
mph
1020.4mb 83f 82f
10:20am  -   -   -  7 9 mph 1020.6mb 83f 81f
9:50am 2.5ft 4s 5s 7 9 mph 1020.4mb 83f 81f
9:20am  -   -   -  9
mph
1020.5mb 83f 82f
8:50am 3.5ft 8s 5s 9
mph
1020.6mb 82f 82f
8:20am  -   -   -  9 11 mph 1020.6mb 82f 82f
7:50am 3.5ft 5s 5s 9
mph
1020.6mb 82f 81f
7:20am  -   -   -  11 13 mph 1020.5mb 82f 81f
6:50am 3.5ft 8s 5s 11 13 mph 1020.3mb 82f 81f
6:20am  -   -   -  13 16 mph 1019.9mb 83f 81f
5:50am 3.5ft 4s 5s 13 16 mph 1019.6mb 83f 81f
5:20am  -   -   -  16 18 mph 1019.4mb 83f 81f
4:50am 3.5ft 9s 5s 16 18 mph 1019.2mb 83f 81f
4:20am  -   -   -  18 20 mph 1019mb 83f 81f
3:50am 3.5ft 9s 5s 18 22 mph 1018.9mb 83f 81f
3:20am  -   -   -  16 18 mph 1019.2mb 83f 81f
2:50am 3ft 9s 5s 16 18 mph 1019.4mb 83f 81f
2:20am  -   -   -  16 18 mph 1019.6mb 83f 82f
1:50am 3ft 9s 5s 13 16 mph 1019.9mb 83f 82f
1:20am  -   -   -  16
mph
1020.2mb 83f 82f
12:50am 3ft 9s 5s 13 16 mph 1020.3mb 83f 82f
12:20am  -   -   -  18 22 mph 1020.3mb 83f 81f
Sun 08/31 11:50pm 3.5ft 9s 5s 13 18 mph 1020.4mb 83f 83f
11:20pm  -   -   -  13 16 mph 1020.7mb 83f 83f
10:50pm 3ft 8s 5s 13 16 mph 1020.5mb 83f 83f
10:20pm  -   -   -  13 16 mph 1020.5mb 83f 83f
9:50pm 3ft 9s 5s 13 16 mph 1020.4mb 83f 83f
9:20pm  -   -   -  13
mph
1020.3mb 83f 83f
8:50pm 3ft 9s 5s 13 16 mph 1020mb 83f 83f
8:20pm  -   -   -  13
mph
1019.8mb 83f 83f
7:50pm 3ft 9s 5s 13
mph
1019.8mb 83f 83f
6:50pm 3ft 9s 5s 13 16 mph 1019.6mb 84f 83f
6:20pm  -   -   -  13 16 mph 1019.7mb 84f 83f
5:50pm 2.5ft 8s 6s 11 13 mph 1019.8mb 84f 83f
5:20pm  -   -   -  9 11 mph 1020mb 84f 83f
4:50pm 2.5ft 8s 6s 11 13 mph 1019.9mb 84f 83f
4:20pm  -   -   -  11 13 mph 1019.9mb 85f 83f
3:50pm 2.5ft 8s 6s 9 11 mph 1020.2mb 85f 83f
3:20pm  -   -   -  7 9 mph 1020.4mb 85f 83f
2:50pm 3ft 9s 6s 7
mph
1020.7mb 85f 83f
2:20pm  -   -   -  7 9 mph 1021mb 85f 82f
1:50pm 2.5ft 9s 6s 7 9 mph 1021.3mb 85f 82f
1:20pm  -   -   -  7 9 mph 1021.6mb 86f 82f
12:50pm 2.5ft 9s 6s 4
mph
1021.7mb 86f 82f
12:20pm  -   -   -  4 7 mph 1022.1mb 85f 82f
11:50am 2.5ft 9s 6s  -  2 mph 1022.3mb 84f 83f
11:20am  -   -   -   -  2 mph 1022.4mb 84f 83f
10:50am 3ft 10s 6s  -  mph 1022.4mb 83f 83f
10:20am  -   -   -  2
mph
1022.6mb 83f 82f
9:50am 2.5ft 9s 5s 2
mph
1022.7mb 83f 82f
9:20am  -   -   -  2 4 mph 1022.8mb 83f 82f
8:50am 2.5ft 10s 5s 4 7 mph 1022.7mb 83f 81f
8:20am  -   -   -  4 7 mph 1022.6mb 83f 82f
7:50am 3ft 10s 5s 9 11 mph 1022.7mb 83f 81f
7:20am  -   -   -  13 16 mph 1022.3mb 83f 80f
6:50am 3ft 10s 5s 9 11 mph 1022.1mb 83f 82f
6:20am  -   -   -  9 11 mph 1021.8mb 83f 82f
5:50am 2.5ft 8s 6s 11 13 mph 1021.7mb 83f 82f
5:20am  -   -   -  9 11 mph 1021.6mb 83f 82f
4:50am 2.5ft 7s 6s 9 11 mph 1021.4mb 83f 82f
4:20am  -   -   -  9 11 mph 1021.5mb 83f 82f
3:50am 2.5ft 8s 6s 11
mph
1021.4mb 83f 82f
3:20am  -   -   -  7 11 mph 1021.7mb 83f 82f
2:50am 2.5ft 9s 6s 2 4 mph 1022.1mb 83f 82f
2:20am  -   -   -  4 7 mph 1022.3mb 83f 82f
1:50am 2.5ft 11s 6s 7 9 mph 1022.3mb 83f 82f
1:20am  -   -   -  7 9 mph 1022.5mb 83f 82f
12:50am 2.5ft 8s 5s 9 11 mph 1022.6mb 83f 82f
12:20am  -   -   -  11 13 mph 1022.4mb 83f 82f
Sat 08/30 11:50pm 2.5ft 8s 5s 11 13 mph 1022.2mb 83f 82f
11:20pm  -   -   -  9 11 mph 1022.5mb 83f 82f
10:50pm 2.5ft 8s 5s 11 13 mph 1022.3mb 83f 82f
10:20pm  -   -   -  9 11 mph 1022.2mb 83f 82f
9:50pm 2.5ft 8s 5s 11 13 mph 1021.8mb 83f 82f
9:20pm  -   -   -  11 13 mph 1021.6mb 83f 82f
8:50pm 2.5ft 8s 5s 11 13 mph 1021.2mb 83f 82f
8:20pm  -   -   -  9 11 mph 1021.3mb 83f 82f
7:50pm 2.5ft 8s 5s 9 11 mph 1021mb 83f 82f
7:20pm  -   -   -  9 11 mph 1021mb 83f 82f
6:50pm 2.5ft 8s 5s 9 11 mph 1021.1mb 83f 82f
6:20pm  -   -   -  9
mph
1021.4mb 83f 82f
5:50pm 3ft 8s 6s 7 9 mph 1021.4mb 83f 82f
5:20pm  -   -   -  7 9 mph 1021.4mb 83f 82f
4:50pm 2.5ft 8s 5s 9 11 mph 1021.5mb 83f 82f
4:20pm  -   -   -  9 11 mph 1021.6mb 83f 82f
3:50pm 2.5ft 8s 6s 11 13 mph 1021.7mb 83f 81f
3:20pm  -   -   -  11 13 mph 1021.8mb 83f 81f
2:50pm 2.5ft 8s 6s 9 11 mph 1022.4mb 83f 82f
2:20pm  -   -   -  7 9 mph 1022.9mb 83f 81f
1:50pm 2.5ft 8s 6s 7 9 mph 1023.1mb 83f 81f
1:20pm  -   -   -  9
mph
1023.2mb 83f 80f
12:50pm 2.5ft 7s 6s 9 11 mph 1023.2mb 83f 80f
12:20pm  -   -   -  7 9 mph 1023.5mb 83f 81f
11:50am 2.5ft 8s 6s 7
mph
1023.6mb 83f 80f
11:20am  -   -   -  7 9 mph 1023.6mb 83f 80f
10:50am 2.5ft 9s 6s 7 9 mph 1023.5mb 83f 80f
10:20am  -   -   -  7 9 mph 1023.6mb 82f 81f
9:50am 2.5ft 8s 6s 7 9 mph 1023.4mb 82f 80f
9:20am  -   -   -  7 9 mph 1023.2mb 82f 80f
8:50am 3ft 7s 6s 7 9 mph 1023.1mb 82f 81f
8:20am  -   -   -  2
mph
1023.1mb 82f 82f
7:50am 3ft 7s 6s  -  mph 1023.1mb 82f 82f
7:20am  -   -   -  2
mph
1023mb 82f 82f
6:50am 3.5ft 8s 6s 4
mph
1022.4mb 82f 82f
6:20am  -   -   -  4
mph
1022.2mb 82f 82f
5:50am 3ft 8s 6s 7 9 mph 1021.9mb 82f 82f
5:20am  -   -   -  7
mph
1021.6mb 82f 82f
4:50am 3.5ft 7s 6s 7 9 mph 1021.6mb 82f 82f
4:20am  -   -   -  7 9 mph 1021.3mb 82f 82f
3:50am 3ft 8s 6s 9
mph
1021.5mb 82f 82f
3:20am  -   -   -  9 11 mph 1021.6mb 82f 82f
2:50am 2.5ft 8s 6s 11 13 mph 1021.4mb 82f 82f
2:20am  -   -   -  11 13 mph 1021.4mb 82f 82f
1:50am 2.5ft 8s 7s 4 11 mph 1021.5mb 82f 82f
1:20am  -   -   -  2
mph
1021.7mb 82f 82f
12:50am 2.5ft 8s 7s 4
mph
1021.7mb 82f 82f
12:20am  -   -   -  4 7 mph 1021.7mb 82f 82f
Fri 08/29 11:50pm 2.5ft 8s 6s 7
mph
1021.6mb 82f 82f
11:20pm  -   -   -  7 9 mph 1021.6mb 82f 82f
10:50pm 2.5ft 8s 6s 9
mph
1021.3mb 82f 82f
10:20pm  -   -   -  9 11 mph 1021.1mb 82f 82f
9:50pm 2.5ft 8s 6s 9 11 mph 1020.9mb 82f 82f
9:20pm  -   -   -  11
mph
1020.8mb 83f 82f
8:50pm 2.5ft 8s 6s 9 11 mph 1020.4mb 83f 82f
8:20pm  -   -   -  11
mph
1020mb 83f 83f
7:50pm 2.5ft 8s 7s 9 11 mph 1019.7mb 83f 82f
6:50pm 2.5ft 8s 7s 7 9 mph 1019.6mb 83f 82f
6:20pm  -   -   -  7 9 mph 1019.7mb 84f 82f
5:50pm 2.5ft 8s 6s 7
mph
1019.7mb 83f 82f
5:20pm  -   -   -  7
mph
1019.6mb 84f 82f
4:50pm 2.5ft 8s 7s 4 7 mph 1019.4mb 84f 82f
4:20pm  -   -   -  4 7 mph 1019.3mb 84f 82f
3:50pm 2.5ft 9s 6s 4 7 mph 1019.4mb 84f 82f
3:20pm  -   -   -  4 7 mph 1019.6mb 84f 82f
2:50pm 2.5ft 9s 6s 4 7 mph 1019.9mb 84f 82f
2:20pm  -   -   -  4
mph
1020.1mb 84f 81f
1:50pm 2.5ft 9s 6s 4
mph
1020.1mb 84f 81f
1:20pm  -   -   -  2 4 mph 1020.2mb 83f 81f
12:50pm 2.5ft 9s 6s 4
mph
1020.2mb 83f 80f
12:20pm  -   -   -  4
mph
1020.2mb 83f 80f
11:50am 3ft 9s 6s 4 7 mph 1020.2mb 82f 80f
11:20am  -   -   -  7
mph
1020.2mb 82f 80f
10:50am 3ft 8s 6s 9
mph
1020.2mb 82f 79f
10:20am  -   -   -  9 13 mph 1020mb 82f 80f
9:50am 3ft 9s 5s 7 11 mph 1019.7mb 82f 80f
9:20am  -   -   -  9
mph
1019.6mb 82f 81f
8:50am 3ft 8s 5s 7 9 mph 1019.6mb 82f 81f
8:20am  -   -   -  7 9 mph 1019.3mb 81f 80f
7:50am 3.5ft 9s 6s 9 11 mph 1019.1mb 81f 80f
7:20am  -   -   -  9 11 mph 1018.7mb 81f 80f
6:50am 3.5ft 9s 6s 11
mph
1018.4mb 81f 80f
6:20am  -   -   -  11 13 mph 1018mb 81f 80f